sensor_id;sensor_type;location;lat;lon;timestamp;P1;durP1;ratioP1;P2;durP2;ratioP2
12228;SDS011;6177;52.402;9.800;2023-04-06T00:00:26;13.97;;;12.63;;
12228;SDS011;6177;52.402;9.800;2023-04-06T00:03:17;13.20;;;12.10;;
12228;SDS011;6177;52.402;9.800;2023-04-06T00:06:09;13.60;;;12.33;;
12228;SDS011;6177;52.402;9.800;2023-04-06T00:09:00;12.47;;;11.40;;
12228;SDS011;6177;52.402;9.800;2023-04-06T00:11:51;15.83;;;12.73;;
12228;SDS011;6177;52.402;9.800;2023-04-06T00:14:42;13.60;;;11.83;;
12228;SDS011;6177;52.402;9.800;2023-04-06T00:17:33;12.90;;;11.80;;
12228;SDS011;6177;52.402;9.800;2023-04-06T00:20:24;14.30;;;12.60;;
12228;SDS011;6177;52.402;9.800;2023-04-06T00:23:15;14.53;;;13.17;;
12228;SDS011;6177;52.402;9.800;2023-04-06T00:26:06;14.37;;;12.87;;
12228;SDS011;6177;52.402;9.800;2023-04-06T00:28:58;13.30;;;12.13;;
12228;SDS011;6177;52.402;9.800;2023-04-06T00:31:49;13.13;;;11.90;;
12228;SDS011;6177;52.402;9.800;2023-04-06T00:34:40;13.00;;;11.90;;
12228;SDS011;6177;52.402;9.800;2023-04-06T00:37:30;13.23;;;12.03;;
12228;SDS011;6177;52.402;9.800;2023-04-06T00:40:21;13.83;;;12.73;;
12228;SDS011;6177;52.402;9.800;2023-04-06T00:43:12;14.00;;;12.60;;
12228;SDS011;6177;52.402;9.800;2023-04-06T00:46:03;13.43;;;12.23;;
12228;SDS011;6177;52.402;9.800;2023-04-06T00:48:54;12.93;;;11.80;;
12228;SDS011;6177;52.402;9.800;2023-04-06T00:51:45;13.07;;;11.90;;
12228;SDS011;6177;52.402;9.800;2023-04-06T00:54:37;12.67;;;11.57;;
12228;SDS011;6177;52.402;9.800;2023-04-06T00:57:28;12.50;;;11.40;;
12228;SDS011;6177;52.402;9.800;2023-04-06T01:00:20;12.53;;;11.33;;
12228;SDS011;6177;52.402;9.800;2023-04-06T01:03:17;12.80;;;11.73;;
12228;SDS011;6177;52.402;9.800;2023-04-06T01:06:08;12.73;;;11.70;;
12228;SDS011;6177;52.402;9.800;2023-04-06T01:09:02;13.07;;;11.87;;
12228;SDS011;6177;52.402;9.800;2023-04-06T01:11:53;12.77;;;11.63;;
12228;SDS011;6177;52.402;9.800;2023-04-06T01:14:51;13.00;;;11.80;;
12228;SDS011;6177;52.402;9.800;2023-04-06T01:17:42;13.43;;;12.17;;
12228;SDS011;6177;52.402;9.800;2023-04-06T01:20:37;12.77;;;11.53;;
12228;SDS011;6177;52.402;9.800;2023-04-06T01:23:28;13.77;;;12.77;;
12228;SDS011;6177;52.402;9.800;2023-04-06T01:26:19;13.67;;;12.40;;
12228;SDS011;6177;52.402;9.800;2023-04-06T01:29:10;13.00;;;11.90;;
12228;SDS011;6177;52.402;9.800;2023-04-06T01:32:01;12.67;;;11.57;;
12228;SDS011;6177;52.402;9.800;2023-04-06T01:34:57;12.93;;;11.83;;
12228;SDS011;6177;52.402;9.800;2023-04-06T01:37:48;13.23;;;12.13;;
12228;SDS011;6177;52.402;9.800;2023-04-06T01:40:47;13.13;;;12.03;;
12228;SDS011;6177;52.402;9.800;2023-04-06T01:43:38;13.23;;;12.03;;
12228;SDS011;6177;52.402;9.800;2023-04-06T01:46:32;12.67;;;11.67;;
12228;SDS011;6177;52.402;9.800;2023-04-06T01:49:24;13.27;;;12.23;;
12228;SDS011;6177;52.402;9.800;2023-04-06T01:52:18;13.30;;;12.23;;
12228;SDS011;6177;52.402;9.800;2023-04-06T01:55:15;12.77;;;11.70;;
12228;SDS011;6177;52.402;9.800;2023-04-06T01:58:22;12.43;;;11.53;;
12228;SDS011;6177;52.402;9.800;2023-04-06T02:01:12;12.87;;;11.97;;
12228;SDS011;6177;52.402;9.800;2023-04-06T02:04:14;12.87;;;11.67;;
12228;SDS011;6177;52.402;9.800;2023-04-06T02:07:06;13.80;;;12.67;;
12228;SDS011;6177;52.402;9.800;2023-04-06T02:09:57;12.27;;;11.37;;
12228;SDS011;6177;52.402;9.800;2023-04-06T02:12:56;13.80;;;12.50;;
12228;SDS011;6177;52.402;9.800;2023-04-06T02:15:50;12.40;;;11.33;;
12228;SDS011;6177;52.402;9.800;2023-04-06T02:18:41;12.77;;;11.73;;
12228;SDS011;6177;52.402;9.800;2023-04-06T02:21:31;13.07;;;11.90;;
12228;SDS011;6177;52.402;9.800;2023-04-06T02:24:22;12.20;;;11.20;;
12228;SDS011;6177;52.402;9.800;2023-04-06T02:27:14;12.63;;;11.67;;
12228;SDS011;6177;52.402;9.800;2023-04-06T02:30:04;12.90;;;11.90;;
12228;SDS011;6177;52.402;9.800;2023-04-06T02:32:56;13.57;;;12.33;;
12228;SDS011;6177;52.402;9.800;2023-04-06T02:35:47;12.87;;;11.93;;
12228;SDS011;6177;52.402;9.800;2023-04-06T02:38:38;13.97;;;12.77;;
12228;SDS011;6177;52.402;9.800;2023-04-06T02:41:29;13.83;;;12.67;;
12228;SDS011;6177;52.402;9.800;2023-04-06T02:44:21;13.93;;;12.83;;
12228;SDS011;6177;52.402;9.800;2023-04-06T02:47:12;13.53;;;12.40;;
12228;SDS011;6177;52.402;9.800;2023-04-06T02:50:05;12.80;;;11.70;;
12228;SDS011;6177;52.402;9.800;2023-04-06T02:53:00;13.20;;;12.20;;
12228;SDS011;6177;52.402;9.800;2023-04-06T02:55:51;14.03;;;12.83;;
12228;SDS011;6177;52.402;9.800;2023-04-06T02:58:42;12.47;;;11.67;;
12228;SDS011;6177;52.402;9.800;2023-04-06T03:01:33;12.73;;;11.73;;
12228;SDS011;6177;52.402;9.800;2023-04-06T03:04:27;13.50;;;12.40;;
12228;SDS011;6177;52.402;9.800;2023-04-06T03:07:19;13.60;;;12.50;;
12228;SDS011;6177;52.402;9.800;2023-04-06T03:10:10;12.97;;;11.77;;
12228;SDS011;6177;52.402;9.800;2023-04-06T03:13:01;13.40;;;12.30;;
12228;SDS011;6177;52.402;9.800;2023-04-06T03:16:13;12.90;;;11.67;;
12228;SDS011;6177;52.402;9.800;2023-04-06T03:19:04;13.63;;;12.53;;
12228;SDS011;6177;52.402;9.800;2023-04-06T03:21:58;13.23;;;12.17;;
12228;SDS011;6177;52.402;9.800;2023-04-06T03:24:49;12.87;;;11.70;;
12228;SDS011;6177;52.402;9.800;2023-04-06T03:27:40;13.27;;;12.27;;
12228;SDS011;6177;52.402;9.800;2023-04-06T03:30:35;12.63;;;11.73;;
12228;SDS011;6177;52.402;9.800;2023-04-06T03:33:26;12.93;;;11.73;;
12228;SDS011;6177;52.402;9.800;2023-04-06T03:36:20;13.13;;;12.13;;
12228;SDS011;6177;52.402;9.800;2023-04-06T03:39:11;13.17;;;12.03;;
12228;SDS011;6177;52.402;9.800;2023-04-06T03:42:05;12.47;;;11.57;;
12228;SDS011;6177;52.402;9.800;2023-04-06T03:45:01;13.63;;;12.43;;
12228;SDS011;6177;52.402;9.800;2023-04-06T03:47:52;14.47;;;13.10;;
12228;SDS011;6177;52.402;9.800;2023-04-06T03:50:43;13.23;;;12.03;;
12228;SDS011;6177;52.402;9.800;2023-04-06T03:53:34;14.37;;;13.03;;
12228;SDS011;6177;52.402;9.800;2023-04-06T03:56:27;13.37;;;12.03;;
12228;SDS011;6177;52.402;9.800;2023-04-06T03:59:18;14.10;;;13.00;;
12228;SDS011;6177;52.402;9.800;2023-04-06T04:02:09;13.60;;;12.47;;
12228;SDS011;6177;52.402;9.800;2023-04-06T04:05:01;12.63;;;11.43;;
12228;SDS011;6177;52.402;9.800;2023-04-06T04:07:52;12.93;;;11.93;;
12228;SDS011;6177;52.402;9.800;2023-04-06T04:10:46;12.70;;;11.40;;
12228;SDS011;6177;52.402;9.800;2023-04-06T04:13:37;12.57;;;11.10;;
12228;SDS011;6177;52.402;9.800;2023-04-06T04:16:30;12.97;;;11.63;;
12228;SDS011;6177;52.402;9.800;2023-04-06T04:19:21;12.83;;;11.47;;
12228;SDS011;6177;52.402;9.800;2023-04-06T04:22:12;13.50;;;12.07;;
12228;SDS011;6177;52.402;9.800;2023-04-06T04:25:04;13.03;;;10.33;;
12228;SDS011;6177;52.402;9.800;2023-04-06T04:27:58;12.43;;;11.10;;
12228;SDS011;6177;52.402;9.800;2023-04-06T04:30:49;11.40;;;10.43;;
12228;SDS011;6177;52.402;9.800;2023-04-06T04:33:40;11.47;;;10.37;;
12228;SDS011;6177;52.402;9.800;2023-04-06T04:36:37;11.10;;;9.43;;
12228;SDS011;6177;52.402;9.800;2023-04-06T04:39:31;11.10;;;10.03;;
12228;SDS011;6177;52.402;9.800;2023-04-06T04:42:27;10.27;;;9.23;;
12228;SDS011;6177;52.402;9.800;2023-04-06T04:45:21;11.27;;;9.83;;
12228;SDS011;6177;52.402;9.800;2023-04-06T04:48:12;11.23;;;10.13;;
12228;SDS011;6177;52.402;9.800;2023-04-06T04:51:13;10.43;;;8.97;;
12228;SDS011;6177;52.402;9.800;2023-04-06T04:54:15;11.00;;;9.70;;
12228;SDS011;6177;52.402;9.800;2023-04-06T04:57:06;11.67;;;10.00;;
12228;SDS011;6177;52.402;9.800;2023-04-06T05:00:02;12.03;;;9.50;;
12228;SDS011;6177;52.402;9.800;2023-04-06T05:02:54;15.57;;;9.30;;
12228;SDS011;6177;52.402;9.800;2023-04-06T05:05:49;9.77;;;8.43;;
12228;SDS011;6177;52.402;9.800;2023-04-06T05:08:41;13.13;;;8.90;;
12228;SDS011;6177;52.402;9.800;2023-04-06T05:11:33;10.07;;;8.60;;
12228;SDS011;6177;52.402;9.800;2023-04-06T05:14:24;14.67;;;7.90;;
12228;SDS011;6177;52.402;9.800;2023-04-06T05:17:15;13.17;;;8.57;;
12228;SDS011;6177;52.402;9.800;2023-04-06T05:20:07;12.03;;;7.37;;
12228;SDS011;6177;52.402;9.800;2023-04-06T05:23:05;12.90;;;8.23;;
12228;SDS011;6177;52.402;9.800;2023-04-06T05:25:55;8.77;;;7.90;;
12228;SDS011;6177;52.402;9.800;2023-04-06T05:28:47;14.77;;;7.33;;
12228;SDS011;6177;52.402;9.800;2023-04-06T05:31:39;13.10;;;8.00;;
12228;SDS011;6177;52.402;9.800;2023-04-06T05:34:30;10.40;;;7.33;;
12228;SDS011;6177;52.402;9.800;2023-04-06T05:37:24;9.23;;;7.30;;
12228;SDS011;6177;52.402;9.800;2023-04-06T05:40:15;9.30;;;7.00;;
12228;SDS011;6177;52.402;9.800;2023-04-06T05:43:07;9.83;;;7.47;;
12228;SDS011;6177;52.402;9.800;2023-04-06T05:45:58;10.50;;;7.27;;
12228;SDS011;6177;52.402;9.800;2023-04-06T05:48:49;10.70;;;6.80;;
12228;SDS011;6177;52.402;9.800;2023-04-06T05:51:40;16.47;;;7.30;;
12228;SDS011;6177;52.402;9.800;2023-04-06T05:54:31;7.93;;;7.10;;
12228;SDS011;6177;52.402;9.800;2023-04-06T05:57:25;8.43;;;7.23;;
12228;SDS011;6177;52.402;9.800;2023-04-06T06:00:16;10.80;;;6.70;;
12228;SDS011;6177;52.402;9.800;2023-04-06T06:03:19;10.50;;;6.97;;
12228;SDS011;6177;52.402;9.800;2023-04-06T06:06:15;8.00;;;6.77;;
12228;SDS011;6177;52.402;9.800;2023-04-06T06:09:26;7.87;;;6.23;;
12228;SDS011;6177;52.402;9.800;2023-04-06T06:12:32;12.73;;;6.27;;
12228;SDS011;6177;52.402;9.800;2023-04-06T06:15:24;9.30;;;6.30;;
12228;SDS011;6177;52.402;9.800;2023-04-06T06:18:16;6.07;;;5.30;;
12228;SDS011;6177;52.402;9.800;2023-04-06T06:21:07;7.07;;;6.37;;
12228;SDS011;6177;52.402;9.800;2023-04-06T06:23:58;7.80;;;5.43;;
12228;SDS011;6177;52.402;9.800;2023-04-06T06:26:49;8.97;;;6.73;;
12228;SDS011;6177;52.402;9.800;2023-04-06T06:29:42;6.50;;;5.90;;
12228;SDS011;6177;52.402;9.800;2023-04-06T06:32:34;6.33;;;5.73;;
12228;SDS011;6177;52.402;9.800;2023-04-06T06:35:25;7.93;;;5.23;;
12228;SDS011;6177;52.402;9.800;2023-04-06T06:38:16;6.80;;;6.13;;
12228;SDS011;6177;52.402;9.800;2023-04-06T06:41:07;9.87;;;6.50;;
12228;SDS011;6177;52.402;9.800;2023-04-06T06:44:00;5.90;;;5.50;;
12228;SDS011;6177;52.402;9.800;2023-04-06T06:46:52;6.60;;;6.10;;
12228;SDS011;6177;52.402;9.800;2023-04-06T06:49:44;5.80;;;5.30;;
12228;SDS011;6177;52.402;9.800;2023-04-06T06:52:34;5.77;;;5.33;;
12228;SDS011;6177;52.402;9.800;2023-04-06T06:55:25;5.70;;;5.23;;
12228;SDS011;6177;52.402;9.800;2023-04-06T06:58:18;6.37;;;5.87;;
12228;SDS011;6177;52.402;9.800;2023-04-06T07:01:10;6.27;;;5.63;;
12228;SDS011;6177;52.402;9.800;2023-04-06T07:04:01;5.33;;;4.97;;
12228;SDS011;6177;52.402;9.800;2023-04-06T07:06:52;5.80;;;5.40;;
12228;SDS011;6177;52.402;9.800;2023-04-06T07:09:43;6.00;;;5.23;;
12228;SDS011;6177;52.402;9.800;2023-04-06T07:12:34;8.60;;;5.70;;
12228;SDS011;6177;52.402;9.800;2023-04-06T07:15:25;6.47;;;5.87;;
12228;SDS011;6177;52.402;9.800;2023-04-06T07:18:17;5.50;;;5.10;;
12228;SDS011;6177;52.402;9.800;2023-04-06T07:21:09;5.53;;;5.00;;
12228;SDS011;6177;52.402;9.800;2023-04-06T07:24:00;5.63;;;5.27;;
12228;SDS011;6177;52.402;9.800;2023-04-06T07:26:52;5.40;;;5.00;;
12228;SDS011;6177;52.402;9.800;2023-04-06T07:29:43;4.67;;;4.37;;
12228;SDS011;6177;52.402;9.800;2023-04-06T07:32:34;5.33;;;4.87;;
12228;SDS011;6177;52.402;9.800;2023-04-06T07:35:26;5.47;;;5.03;;
12228;SDS011;6177;52.402;9.800;2023-04-06T07:38:18;5.00;;;4.70;;
12228;SDS011;6177;52.402;9.800;2023-04-06T07:41:09;5.73;;;5.37;;
12228;SDS011;6177;52.402;9.800;2023-04-06T07:44:00;4.93;;;4.63;;
12228;SDS011;6177;52.402;9.800;2023-04-06T07:46:51;5.50;;;4.97;;
12228;SDS011;6177;52.402;9.800;2023-04-06T07:49:44;5.23;;;4.93;;
12228;SDS011;6177;52.402;9.800;2023-04-06T07:52:35;6.07;;;5.53;;
12228;SDS011;6177;52.402;9.800;2023-04-06T07:55:26;5.30;;;5.00;;
12228;SDS011;6177;52.402;9.800;2023-04-06T07:58:17;5.50;;;5.13;;
12228;SDS011;6177;52.402;9.800;2023-04-06T08:01:08;5.87;;;5.47;;
12228;SDS011;6177;52.402;9.800;2023-04-06T08:03:59;5.43;;;5.03;;
12228;SDS011;6177;52.402;9.800;2023-04-06T08:06:52;6.10;;;5.53;;
12228;SDS011;6177;52.402;9.800;2023-04-06T08:09:43;5.60;;;5.20;;
12228;SDS011;6177;52.402;9.800;2023-04-06T08:12:34;5.13;;;4.77;;
12228;SDS011;6177;52.402;9.800;2023-04-06T08:15:25;5.40;;;5.00;;
12228;SDS011;6177;52.402;9.800;2023-04-06T08:18:16;5.33;;;5.03;;
12228;SDS011;6177;52.402;9.800;2023-04-06T08:21:07;5.40;;;5.10;;
12228;SDS011;6177;52.402;9.800;2023-04-06T08:23:59;6.13;;;5.63;;
12228;SDS011;6177;52.402;9.800;2023-04-06T08:26:49;5.20;;;4.80;;
12228;SDS011;6177;52.402;9.800;2023-04-06T08:29:42;5.93;;;5.43;;
12228;SDS011;6177;52.402;9.800;2023-04-06T08:32:32;4.90;;;4.60;;
12228;SDS011;6177;52.402;9.800;2023-04-06T08:35:23;5.27;;;4.97;;
12228;SDS011;6177;52.402;9.800;2023-04-06T08:38:14;5.43;;;5.13;;
12228;SDS011;6177;52.402;9.800;2023-04-06T08:41:12;5.43;;;5.10;;
12228;SDS011;6177;52.402;9.800;2023-04-06T08:44:03;5.47;;;5.07;;
12228;SDS011;6177;52.402;9.800;2023-04-06T08:46:55;5.73;;;5.20;;
12228;SDS011;6177;52.402;9.800;2023-04-06T08:49:46;5.33;;;5.03;;
12228;SDS011;6177;52.402;9.800;2023-04-06T08:52:37;5.30;;;5.00;;
12228;SDS011;6177;52.402;9.800;2023-04-06T08:55:28;5.27;;;4.87;;
12228;SDS011;6177;52.402;9.800;2023-04-06T08:58:20;5.70;;;5.30;;
12228;SDS011;6177;52.402;9.800;2023-04-06T09:01:12;5.77;;;5.37;;
12228;SDS011;6177;52.402;9.800;2023-04-06T09:04:05;5.03;;;4.73;;
12228;SDS011;6177;52.402;9.800;2023-04-06T09:07:00;5.77;;;5.47;;
12228;SDS011;6177;52.402;9.800;2023-04-06T09:09:51;6.03;;;5.50;;
12228;SDS011;6177;52.402;9.800;2023-04-06T09:12:42;5.70;;;5.30;;
12228;SDS011;6177;52.402;9.800;2023-04-06T09:15:34;5.43;;;5.10;;
12228;SDS011;6177;52.402;9.800;2023-04-06T09:18:28;5.97;;;5.43;;
12228;SDS011;6177;52.402;9.800;2023-04-06T09:21:22;5.93;;;5.33;;
12228;SDS011;6177;52.402;9.800;2023-04-06T09:24:13;5.90;;;5.50;;
12228;SDS011;6177;52.402;9.800;2023-04-06T09:27:04;5.70;;;5.40;;
12228;SDS011;6177;52.402;9.800;2023-04-06T09:30:29;6.67;;;6.27;;
12228;SDS011;6177;52.402;9.800;2023-04-06T09:33:21;6.13;;;5.73;;
12228;SDS011;6177;52.402;9.800;2023-04-06T09:36:14;5.83;;;5.40;;
12228;SDS011;6177;52.402;9.800;2023-04-06T09:39:05;5.87;;;5.57;;
12228;SDS011;6177;52.402;9.800;2023-04-06T09:41:56;6.53;;;6.03;;
12228;SDS011;6177;52.402;9.800;2023-04-06T09:44:47;6.17;;;5.77;;
12228;SDS011;6177;52.402;9.800;2023-04-06T09:47:39;6.47;;;6.03;;
12228;SDS011;6177;52.402;9.800;2023-04-06T09:50:31;5.90;;;5.50;;
12228;SDS011;6177;52.402;9.800;2023-04-06T09:53:23;6.30;;;5.90;;
12228;SDS011;6177;52.402;9.800;2023-04-06T09:56:16;5.63;;;5.13;;
12228;SDS011;6177;52.402;9.800;2023-04-06T09:59:09;5.97;;;5.37;;
12228;SDS011;6177;52.402;9.800;2023-04-06T10:02:05;5.47;;;5.17;;
12228;SDS011;6177;52.402;9.800;2023-04-06T10:04:57;6.63;;;6.03;;
12228;SDS011;6177;52.402;9.800;2023-04-06T10:07:49;7.27;;;6.77;;
12228;SDS011;6177;52.402;9.800;2023-04-06T10:10:41;5.37;;;4.97;;
12228;SDS011;6177;52.402;9.800;2023-04-06T10:13:33;5.83;;;5.33;;
12228;SDS011;6177;52.402;9.800;2023-04-06T10:16:25;5.90;;;5.27;;
12228;SDS011;6177;52.402;9.800;2023-04-06T10:19:18;5.30;;;5.00;;
12228;SDS011;6177;52.402;9.800;2023-04-06T10:22:15;5.77;;;5.27;;
12228;SDS011;6177;52.402;9.800;2023-04-06T10:25:11;6.33;;;5.83;;
12228;SDS011;6177;52.402;9.800;2023-04-06T10:28:06;5.73;;;5.33;;
12228;SDS011;6177;52.402;9.800;2023-04-06T10:30:58;6.00;;;5.10;;
12228;SDS011;6177;52.402;9.800;2023-04-06T10:33:58;5.53;;;5.10;;
12228;SDS011;6177;52.402;9.800;2023-04-06T10:36:50;5.73;;;5.33;;
12228;SDS011;6177;52.402;9.800;2023-04-06T10:39:45;5.47;;;5.00;;
12228;SDS011;6177;52.402;9.800;2023-04-06T10:42:46;5.10;;;4.80;;
12228;SDS011;6177;52.402;9.800;2023-04-06T10:45:36;6.10;;;5.47;;
12228;SDS011;6177;52.402;9.800;2023-04-06T10:51:32;6.00;;;5.50;;
12228;SDS011;6177;52.402;9.800;2023-04-06T10:54:24;6.50;;;5.43;;
12228;SDS011;6177;52.402;9.800;2023-04-06T10:57:15;5.40;;;5.10;;
12228;SDS011;6177;52.402;9.800;2023-04-06T11:00:07;7.00;;;6.40;;
12228;SDS011;6177;52.402;9.800;2023-04-06T11:02:59;6.30;;;5.80;;
12228;SDS011;6177;52.402;9.800;2023-04-06T11:05:51;6.30;;;5.73;;
12228;SDS011;6177;52.402;9.800;2023-04-06T11:08:42;5.97;;;5.57;;
12228;SDS011;6177;52.402;9.800;2023-04-06T11:11:32;6.50;;;6.10;;
12228;SDS011;6177;52.402;9.800;2023-04-06T11:14:22;5.87;;;5.47;;
12228;SDS011;6177;52.402;9.800;2023-04-06T11:17:14;6.13;;;5.63;;
12228;SDS011;6177;52.402;9.800;2023-04-06T11:20:09;6.77;;;6.27;;
12228;SDS011;6177;52.402;9.800;2023-04-06T11:23:00;6.57;;;6.07;;
12228;SDS011;6177;52.402;9.800;2023-04-06T11:25:52;5.80;;;5.30;;
12228;SDS011;6177;52.402;9.800;2023-04-06T11:28:43;6.60;;;6.17;;
12228;SDS011;6177;52.402;9.800;2023-04-06T11:31:37;6.80;;;6.20;;
12228;SDS011;6177;52.402;9.800;2023-04-06T11:34:30;6.93;;;6.43;;
12228;SDS011;6177;52.402;9.800;2023-04-06T11:37:25;7.57;;;6.97;;
12228;SDS011;6177;52.402;9.800;2023-04-06T11:40:20;7.60;;;7.10;;
12228;SDS011;6177;52.402;9.800;2023-04-06T11:43:12;7.30;;;6.70;;
12228;SDS011;6177;52.402;9.800;2023-04-06T11:46:04;7.50;;;6.80;;
12228;SDS011;6177;52.402;9.800;2023-04-06T11:48:59;5.80;;;5.40;;
12228;SDS011;6177;52.402;9.800;2023-04-06T11:51:50;6.20;;;5.90;;
12228;SDS011;6177;52.402;9.800;2023-04-06T11:54:43;7.10;;;6.60;;
12228;SDS011;6177;52.402;9.800;2023-04-06T11:57:33;8.53;;;7.70;;
12228;SDS011;6177;52.402;9.800;2023-04-06T12:00:25;8.23;;;7.47;;
12228;SDS011;6177;52.402;9.800;2023-04-06T12:03:15;8.33;;;7.70;;
12228;SDS011;6177;52.402;9.800;2023-04-06T12:06:07;7.47;;;6.97;;
12228;SDS011;6177;52.402;9.800;2023-04-06T12:08:57;7.40;;;7.00;;
12228;SDS011;6177;52.402;9.800;2023-04-06T12:11:49;8.20;;;7.57;;
12228;SDS011;6177;52.402;9.800;2023-04-06T12:14:39;7.27;;;6.77;;
12228;SDS011;6177;52.402;9.800;2023-04-06T12:17:30;7.20;;;6.70;;
12228;SDS011;6177;52.402;9.800;2023-04-06T12:20:22;8.27;;;7.57;;
12228;SDS011;6177;52.402;9.800;2023-04-06T12:23:12;8.13;;;7.53;;
12228;SDS011;6177;52.402;9.800;2023-04-06T12:26:04;7.60;;;7.10;;
12228;SDS011;6177;52.402;9.800;2023-04-06T12:28:54;8.27;;;7.00;;
12228;SDS011;6177;52.402;9.800;2023-04-06T12:31:45;6.57;;;6.17;;
12228;SDS011;6177;52.402;9.800;2023-04-06T12:34:37;7.40;;;7.00;;
12228;SDS011;6177;52.402;9.800;2023-04-06T12:37:27;6.70;;;6.30;;
12228;SDS011;6177;52.402;9.800;2023-04-06T12:40:19;7.13;;;6.63;;
12228;SDS011;6177;52.402;9.800;2023-04-06T12:43:11;7.63;;;6.97;;
12228;SDS011;6177;52.402;9.800;2023-04-06T12:46:03;7.70;;;7.20;;
12228;SDS011;6177;52.402;9.800;2023-04-06T12:48:54;7.40;;;6.85;;
12228;SDS011;6177;52.402;9.800;2023-04-06T12:51:46;7.13;;;6.63;;
12228;SDS011;6177;52.402;9.800;2023-04-06T12:54:36;7.22;;;6.72;;
12228;SDS011;6177;52.402;9.800;2023-04-06T12:57:27;6.40;;;6.03;;
12228;SDS011;6177;52.402;9.800;2023-04-06T13:00:20;6.93;;;6.43;;
12228;SDS011;6177;52.402;9.800;2023-04-06T13:03:10;6.75;;;6.32;;
12228;SDS011;6177;52.402;9.800;2023-04-06T13:06:02;6.82;;;6.43;;
12228;SDS011;6177;52.402;9.800;2023-04-06T13:08:52;6.22;;;5.85;;
12228;SDS011;6177;52.402;9.800;2023-04-06T13:11:44;6.70;;;6.40;;
12228;SDS011;6177;52.402;9.800;2023-04-06T13:14:35;6.07;;;5.70;;
12228;SDS011;6177;52.402;9.800;2023-04-06T13:17:26;6.50;;;6.20;;
12228;SDS011;6177;52.402;9.800;2023-04-06T13:20:18;7.95;;;7.35;;
12228;SDS011;6177;52.402;9.800;2023-04-06T13:23:08;7.30;;;6.82;;
12228;SDS011;6177;52.402;9.800;2023-04-06T13:26:00;7.32;;;6.82;;
12228;SDS011;6177;52.402;9.800;2023-04-06T13:28:54;7.53;;;7.13;;
12228;SDS011;6177;52.402;9.800;2023-04-06T13:31:46;7.20;;;6.80;;
12228;SDS011;6177;52.402;9.800;2023-04-06T13:34:38;7.70;;;7.20;;
12228;SDS011;6177;52.402;9.800;2023-04-06T13:37:28;7.20;;;6.70;;
12228;SDS011;6177;52.402;9.800;2023-04-06T13:40:20;7.22;;;6.82;;
12228;SDS011;6177;52.402;9.800;2023-04-06T13:43:10;6.95;;;6.65;;
12228;SDS011;6177;52.402;9.800;2023-04-06T13:46:01;6.30;;;6.00;;
12228;SDS011;6177;52.402;9.800;2023-04-06T13:48:52;6.90;;;6.45;;
12228;SDS011;6177;52.402;9.800;2023-04-06T13:51:42;6.80;;;6.30;;
12228;SDS011;6177;52.402;9.800;2023-04-06T13:54:32;8.13;;;7.68;;
12228;SDS011;6177;52.402;9.800;2023-04-06T13:57:23;7.38;;;6.75;;
12228;SDS011;6177;52.402;9.800;2023-04-06T14:00:15;6.55;;;6.18;;
12228;SDS011;6177;52.402;9.800;2023-04-06T14:03:05;7.30;;;6.82;;
12228;SDS011;6177;52.402;9.800;2023-04-06T14:05:57;6.93;;;6.35;;
12228;SDS011;6177;52.402;9.800;2023-04-06T14:08:48;6.85;;;6.47;;
12228;SDS011;6177;52.402;9.800;2023-04-06T14:11:39;6.75;;;6.25;;
12228;SDS011;6177;52.402;9.800;2023-04-06T14:14:30;6.60;;;6.18;;
12228;SDS011;6177;52.402;9.800;2023-04-06T14:17:21;7.38;;;6.97;;
12228;SDS011;6177;52.402;9.800;2023-04-06T14:20:12;7.40;;;6.90;;
12228;SDS011;6177;52.402;9.800;2023-04-06T14:23:04;7.13;;;6.65;;
12228;SDS011;6177;52.402;9.800;2023-04-06T14:26:05;7.03;;;6.70;;
12228;SDS011;6177;52.402;9.800;2023-04-06T14:28:58;7.40;;;6.93;;
12228;SDS011;6177;52.402;9.800;2023-04-06T14:31:49;7.05;;;6.65;;
12228;SDS011;6177;52.402;9.800;2023-04-06T14:34:41;7.40;;;7.00;;
12228;SDS011;6177;52.402;9.800;2023-04-06T14:37:32;6.22;;;5.88;;
12228;SDS011;6177;52.402;9.800;2023-04-06T14:40:23;6.65;;;6.25;;
12228;SDS011;6177;52.402;9.800;2023-04-06T14:43:13;5.55;;;5.35;;
12228;SDS011;6177;52.402;9.800;2023-04-06T14:46:04;6.80;;;6.32;;
12228;SDS011;6177;52.402;9.800;2023-04-06T14:48:56;6.65;;;6.25;;
12228;SDS011;6177;52.402;9.800;2023-04-06T14:51:47;6.55;;;6.00;;
12228;SDS011;6177;52.402;9.800;2023-04-06T14:54:38;6.32;;;6.03;;
12228;SDS011;6177;52.402;9.800;2023-04-06T14:57:29;6.57;;;6.18;;
12228;SDS011;6177;52.402;9.800;2023-04-06T15:00:19;6.60;;;6.15;;
12228;SDS011;6177;52.402;9.800;2023-04-06T15:03:10;6.13;;;5.85;;
12228;SDS011;6177;52.402;9.800;2023-04-06T15:06:02;6.90;;;6.30;;
12228;SDS011;6177;52.402;9.800;2023-04-06T15:08:53;6.15;;;5.85;;
12228;SDS011;6177;52.402;9.800;2023-04-06T15:11:43;6.35;;;5.95;;
12228;SDS011;6177;52.402;9.800;2023-04-06T15:14:35;5.95;;;5.65;;
12228;SDS011;6177;52.402;9.800;2023-04-06T15:17:26;6.95;;;6.55;;
12228;SDS011;6177;52.402;9.800;2023-04-06T15:20:17;6.90;;;6.55;;
12228;SDS011;6177;52.402;9.800;2023-04-06T15:23:07;6.82;;;6.32;;
12228;SDS011;6177;52.402;9.800;2023-04-06T15:25:59;6.95;;;6.55;;
12228;SDS011;6177;52.402;9.800;2023-04-06T15:28:50;6.90;;;6.40;;
12228;SDS011;6177;52.402;9.800;2023-04-06T15:31:42;6.63;;;6.22;;
12228;SDS011;6177;52.402;9.800;2023-04-06T15:34:33;8.07;;;7.32;;
12228;SDS011;6177;52.402;9.800;2023-04-06T15:37:23;7.60;;;7.03;;
12228;SDS011;6177;52.402;9.800;2023-04-06T15:40:15;7.38;;;6.88;;
12228;SDS011;6177;52.402;9.800;2023-04-06T15:43:06;7.07;;;6.57;;
12228;SDS011;6177;52.402;9.800;2023-04-06T15:45:57;6.47;;;6.05;;
12228;SDS011;6177;52.402;9.800;2023-04-06T15:48:48;7.32;;;6.82;;
12228;SDS011;6177;52.402;9.800;2023-04-06T15:51:39;6.13;;;5.72;;
12228;SDS011;6177;52.402;9.800;2023-04-06T15:54:30;6.55;;;6.13;;
12228;SDS011;6177;52.402;9.800;2023-04-06T15:57:20;7.15;;;6.65;;
12228;SDS011;6177;52.402;9.800;2023-04-06T16:00:12;6.70;;;6.30;;
12228;SDS011;6177;52.402;9.800;2023-04-06T16:03:03;7.20;;;6.70;;
12228;SDS011;6177;52.402;9.800;2023-04-06T16:05:54;7.35;;;6.68;;
12228;SDS011;6177;52.402;9.800;2023-04-06T16:08:46;6.93;;;6.38;;
12228;SDS011;6177;52.402;9.800;2023-04-06T16:11:37;6.90;;;6.50;;
12228;SDS011;6177;52.402;9.800;2023-04-06T16:14:27;9.00;;;8.30;;
12228;SDS011;6177;52.402;9.800;2023-04-06T16:17:19;7.20;;;6.60;;
12228;SDS011;6177;52.402;9.800;2023-04-06T16:20:11;6.80;;;6.32;;
12228;SDS011;6177;52.402;9.800;2023-04-06T16:23:04;7.05;;;6.55;;
12228;SDS011;6177;52.402;9.800;2023-04-06T16:25:56;7.80;;;7.30;;
12228;SDS011;6177;52.402;9.800;2023-04-06T16:28:49;8.45;;;7.65;;
12228;SDS011;6177;52.402;9.800;2023-04-06T16:31:41;8.13;;;7.53;;
12228;SDS011;6177;52.402;9.800;2023-04-06T16:34:35;7.00;;;6.45;;
12228;SDS011;6177;52.402;9.800;2023-04-06T16:37:27;7.68;;;7.10;;
12228;SDS011;6177;52.402;9.800;2023-04-06T16:40:19;7.30;;;6.70;;
12228;SDS011;6177;52.402;9.800;2023-04-06T16:43:10;7.43;;;6.72;;
12228;SDS011;6177;52.402;9.800;2023-04-06T16:46:00;7.30;;;6.80;;
12228;SDS011;6177;52.402;9.800;2023-04-06T16:48:52;8.85;;;8.00;;
12228;SDS011;6177;52.402;9.800;2023-04-06T16:51:44;7.38;;;6.88;;
12228;SDS011;6177;52.402;9.800;2023-04-06T16:54:35;6.93;;;6.50;;
12228;SDS011;6177;52.402;9.800;2023-04-06T16:57:26;8.18;;;7.43;;
12228;SDS011;6177;52.402;9.800;2023-04-06T17:00:19;7.65;;;7.05;;
12228;SDS011;6177;52.402;9.800;2023-04-06T17:03:10;9.05;;;8.43;;
12228;SDS011;6177;52.402;9.800;2023-04-06T17:06:01;8.10;;;7.40;;
12228;SDS011;6177;52.402;9.800;2023-04-06T17:08:51;8.25;;;7.55;;
12228;SDS011;6177;52.402;9.800;2023-04-06T17:11:42;9.13;;;8.10;;
12228;SDS011;6177;52.402;9.800;2023-04-06T17:14:34;8.13;;;7.40;;
12228;SDS011;6177;52.402;9.800;2023-04-06T17:17:24;8.45;;;7.80;;
12228;SDS011;6177;52.402;9.800;2023-04-06T17:20:15;9.05;;;8.25;;
12228;SDS011;6177;52.402;9.800;2023-04-06T17:23:07;8.18;;;7.57;;
12228;SDS011;6177;52.402;9.800;2023-04-06T17:25:58;8.98;;;8.27;;